sensor_id;sensor_type;location;lat;lon;timestamp;pressure;altitude;pressure_sealevel;temperature;humidity
14612;BME280;7392;52.078;11.650;2022-09-20T00:00:25;101034.03;;;9.36;100.00
14612;BME280;7392;52.078;11.650;2022-09-20T00:02:52;101027.81;;;9.35;100.00
14612;BME280;7392;52.078;11.650;2022-09-20T00:05:20;101036.66;;;9.34;100.00
14612;BME280;7392;52.078;11.650;2022-09-20T00:07:49;101034.00;;;9.33;100.00
14612;BME280;7392;52.078;11.650;2022-09-20T00:10:17;101033.09;;;9.31;100.00
14612;BME280;7392;52.078;11.650;2022-09-20T00:12:44;101035.75;;;9.29;100.00
14612;BME280;7392;52.078;11.650;2022-09-20T00:15:12;101038.38;;;9.28;100.00
14612;BME280;7392;52.078;11.650;2022-09-20T00:17:40;101041.88;;;9.25;100.00
14612;BME280;7392;52.078;11.650;2022-09-20T00:20:08;101040.97;;;9.23;100.00
14612;BME280;7392;52.078;11.650;2022-09-20T00:22:35;101044.50;;;9.22;100.00
14612;BME280;7392;52.078;11.650;2022-09-20T00:25:06;101048.91;;;9.20;100.00
14612;BME280;7392;52.078;11.650;2022-09-20T00:27:34;101047.13;;;9.17;100.00
14612;BME280;7392;52.078;11.650;2022-09-20T00:30:02;101047.09;;;9.16;100.00
14612;BME280;7392;52.078;11.650;2022-09-20T00:32:30;101051.50;;;9.14;100.00
14612;BME280;7392;52.078;11.650;2022-09-20T00:34:57;101050.56;;;9.10;100.00
14612;BME280;7392;52.078;11.650;2022-09-20T00:37:34;101054.97;;;9.07;100.00
14612;BME280;7392;52.078;11.650;2022-09-20T00:40:02;101050.53;;;9.04;100.00
14612;BME280;7392;52.078;11.650;2022-09-20T00:42:32;101056.69;;;9.02;100.00
14612;BME280;7392;52.078;11.650;2022-09-20T00:45:01;101054.03;;;8.98;100.00
14612;BME280;7392;52.078;11.650;2022-09-20T00:47:35;101054.88;;;8.97;100.00
14612;BME280;7392;52.078;11.650;2022-09-20T00:50:14;101048.69;;;8.94;100.00
14612;BME280;7392;52.078;11.650;2022-09-20T00:52:47;101061.03;;;8.92;100.00
14612;BME280;7392;52.078;11.650;2022-09-20T00:55:17;101061.00;;;8.89;100.00
14612;BME280;7392;52.078;11.650;2022-09-20T00:57:47;101054.78;;;8.85;100.00
14612;BME280;7392;52.078;11.650;2022-09-20T01:00:15;101056.50;;;8.82;100.00
14612;BME280;7392;52.078;11.650;2022-09-20T01:02:47;101061.78;;;8.78;100.00
14612;BME280;7392;52.078;11.650;2022-09-20T01:05:17;101055.59;;;8.76;100.00
14612;BME280;7392;52.078;11.650;2022-09-20T01:07:47;101054.63;;;8.70;100.00
14612;BME280;7392;52.078;11.650;2022-09-20T01:10:16;101054.59;;;8.68;100.00
14612;BME280;7392;52.078;11.650;2022-09-20T01:12:46;101058.97;;;8.63;100.00
14612;BME280;7392;52.078;11.650;2022-09-20T01:15:15;101053.63;;;8.58;100.00
14612;BME280;7392;52.078;11.650;2022-09-20T01:17:45;101057.09;;;8.53;100.00
14612;BME280;7392;52.078;11.650;2022-09-20T01:20:17;101053.47;;;8.46;100.00
14612;BME280;7392;52.078;11.650;2022-09-20T01:23:04;101067.50;;;8.39;100.00
14612;BME280;7392;52.078;11.650;2022-09-20T01:25:52;101062.09;;;8.33;100.00
14612;BME280;7392;52.078;11.650;2022-09-20T01:28:27;101075.28;;;8.28;100.00
14612;BME280;7392;52.078;11.650;2022-09-20T01:31:02;101072.63;;;8.25;100.00
14612;BME280;7392;52.078;11.650;2022-09-20T01:33:39;101063.72;;;8.21;100.00
14612;BME280;7392;52.078;11.650;2022-09-20T01:36:16;101066.34;;;8.17;100.00
14612;BME280;7392;52.078;11.650;2022-09-20T01:38:52;101070.69;;;8.13;100.00
14612;BME280;7392;52.078;11.650;2022-09-20T01:41:26;101068.91;;;8.12;100.00
14612;BME280;7392;52.078;11.650;2022-09-20T01:44:04;101076.81;;;8.11;100.00
14612;BME280;7392;52.078;11.650;2022-09-20T01:46:35;101074.13;;;8.08;100.00
14612;BME280;7392;52.078;11.650;2022-09-20T01:49:15;101067.94;;;8.05;100.00
14612;BME280;7392;52.078;11.650;2022-09-20T01:52:11;101072.34;;;8.03;100.00
14612;BME280;7392;52.078;11.650;2022-09-20T02:00:55;101071.25;;;7.89;100.00
14612;BME280;7392;52.078;11.650;2022-09-20T02:03:45;101074.72;;;7.85;100.00
14612;BME280;7392;52.078;11.650;2022-09-20T02:06:39;101074.66;;;7.82;100.00
14612;BME280;7392;52.078;11.650;2022-09-20T02:09:28;101084.34;;;7.80;100.00
14612;BME280;7392;52.078;11.650;2022-09-20T02:12:21;101076.38;;;7.78;100.00
14612;BME280;7392;52.078;11.650;2022-09-20T02:15:06;101076.38;;;7.78;100.00
14612;BME280;7392;52.078;11.650;2022-09-20T02:17:45;101080.75;;;7.76;100.00
14612;BME280;7392;52.078;11.650;2022-09-20T02:20:27;101081.66;;;7.77;100.00
14612;BME280;7392;52.078;11.650;2022-09-20T02:23:21;101085.19;;;7.79;100.00
14612;BME280;7392;52.078;11.650;2022-09-20T02:26:08;101078.16;;;7.79;100.00
14612;BME280;7392;52.078;11.650;2022-09-20T02:28:50;101092.28;;;7.80;100.00
14612;BME280;7392;52.078;11.650;2022-09-20T02:31:32;101087.94;;;7.85;100.00
14612;BME280;7392;52.078;11.650;2022-09-20T02:34:25;101085.34;;;7.88;100.00
14612;BME280;7392;52.078;11.650;2022-09-20T02:37:14;101091.56;;;7.92;100.00
14612;BME280;7392;52.078;11.650;2022-09-20T02:39:54;101099.53;;;7.95;100.00
14612;BME280;7392;52.078;11.650;2022-09-20T02:42:33;101089.00;;;7.96;100.00
14612;BME280;7392;52.078;11.650;2022-09-20T02:45:08;101096.06;;;7.99;100.00
14612;BME280;7392;52.078;11.650;2022-09-20T02:47:39;101093.47;;;8.02;100.00
14612;BME280;7392;52.078;11.650;2022-09-20T02:50:25;101090.00;;;8.04;100.00
14612;BME280;7392;52.078;11.650;2022-09-20T02:53:06;101095.28;;;8.06;100.00
14612;BME280;7392;52.078;11.650;2022-09-20T02:55:42;101097.13;;;8.10;100.00
14612;BME280;7392;52.078;11.650;2022-09-20T02:58:27;101098.91;;;8.14;100.00
14612;BME280;7392;52.078;11.650;2022-09-20T03:01:03;101091.88;;;8.16;100.00
14612;BME280;7392;52.078;11.650;2022-09-20T03:03:41;101088.38;;;8.17;100.00
14612;BME280;7392;52.078;11.650;2022-09-20T03:06:20;101104.31;;;8.20;100.00
14612;BME280;7392;52.078;11.650;2022-09-20T03:08:57;101099.91;;;8.22;100.00
14612;BME280;7392;52.078;11.650;2022-09-20T03:11:31;101094.66;;;8.26;100.00
14612;BME280;7392;52.078;11.650;2022-09-20T03:14:09;101099.06;;;8.27;100.00
14612;BME280;7392;52.078;11.650;2022-09-20T03:16:47;101099.09;;;8.28;100.00
14612;BME280;7392;52.078;11.650;2022-09-20T03:19:27;101095.59;;;8.29;100.00
14612;BME280;7392;52.078;11.650;2022-09-20T03:22:05;101098.25;;;8.31;100.00
14612;BME280;7392;52.078;11.650;2022-09-20T03:24:42;101104.47;;;8.33;100.00
14612;BME280;7392;52.078;11.650;2022-09-20T03:27:27;101105.38;;;8.36;100.00
14612;BME280;7392;52.078;11.650;2022-09-20T03:30:07;101102.75;;;8.38;100.00
14612;BME280;7392;52.078;11.650;2022-09-20T03:32:51;101099.28;;;8.40;100.00
14612;BME280;7392;52.078;11.650;2022-09-20T03:35:34;101106.41;;;8.45;100.00
14612;BME280;7392;52.078;11.650;2022-09-20T03:38:23;101107.31;;;8.47;100.00
14612;BME280;7392;52.078;11.650;2022-09-20T03:41:04;101110.88;;;8.50;100.00
14612;BME280;7392;52.078;11.650;2022-09-20T03:43:48;101104.75;;;8.53;100.00
14612;BME280;7392;52.078;11.650;2022-09-20T03:46:24;101114.50;;;8.57;100.00
14612;BME280;7392;52.078;11.650;2022-09-20T03:49:11;101106.59;;;8.60;100.00
14612;BME280;7392;52.078;11.650;2022-09-20T03:51:53;101105.72;;;8.61;100.00
14612;BME280;7392;52.078;11.650;2022-09-20T03:54:55;101112.81;;;8.64;100.00
14612;BME280;7392;52.078;11.650;2022-09-20T03:57:53;101116.34;;;8.66;100.00
14612;BME280;7392;52.078;11.650;2022-09-20T04:00:42;101106.69;;;8.66;100.00
14612;BME280;7392;52.078;11.650;2022-09-20T04:03:33;101113.75;;;8.70;100.00
14612;BME280;7392;52.078;11.650;2022-09-20T04:06:17;101114.66;;;8.71;100.00
14612;BME280;7392;52.078;11.650;2022-09-20T04:09:06;101112.94;;;8.73;100.00
14612;BME280;7392;52.078;11.650;2022-09-20T04:11:45;101119.13;;;8.75;100.00
14612;BME280;7392;52.078;11.650;2022-09-20T04:14:22;101119.16;;;8.76;100.00
14612;BME280;7392;52.078;11.650;2022-09-20T04:16:59;101119.16;;;8.78;100.00
14612;BME280;7392;52.078;11.650;2022-09-20T04:19:32;101123.56;;;8.77;100.00
14612;BME280;7392;52.078;11.650;2022-09-20T04:22:02;101128.88;;;8.79;100.00
14612;BME280;7392;52.078;11.650;2022-09-20T04:24:38;101135.06;;;8.81;100.00
14612;BME280;7392;52.078;11.650;2022-09-20T04:27:14;101123.59;;;8.82;100.00
14612;BME280;7392;52.078;11.650;2022-09-20T04:29:46;101130.69;;;8.83;100.00
14612;BME280;7392;52.078;11.650;2022-09-20T04:32:18;101125.38;;;8.85;100.00
14612;BME280;7392;52.078;11.650;2022-09-20T04:34:57;101128.97;;;8.87;100.00
14612;BME280;7392;52.078;11.650;2022-09-20T04:37:43;101132.50;;;8.87;100.00
14612;BME280;7392;52.078;11.650;2022-09-20T04:40:22;101137.78;;;8.87;100.00
14612;BME280;7392;52.078;11.650;2022-09-20T04:46:26;101143.97;;;8.88;100.00
14612;BME280;7392;52.078;11.650;2022-09-20T04:52:34;101143.09;;;8.87;100.00
14612;BME280;7392;52.078;11.650;2022-09-20T04:55:52;101155.47;;;8.88;100.00
14612;BME280;7392;52.078;11.650;2022-09-20T04:58:45;101155.47;;;8.90;100.00
14612;BME280;7392;52.078;11.650;2022-09-20T05:01:43;101151.97;;;8.91;100.00
14612;BME280;7392;52.078;11.650;2022-09-20T05:11:32;101167.88;;;8.92;100.00
14612;BME280;7392;52.078;11.650;2022-09-20T05:14:31;101174.94;;;8.95;100.00
14612;BME280;7392;52.078;11.650;2022-09-20T05:17:19;101172.31;;;8.96;100.00
14612;BME280;7392;52.078;11.650;2022-09-20T05:20:14;101179.44;;;8.99;100.00
14612;BME280;7392;52.078;11.650;2022-09-20T05:23:01;101182.09;;;9.01;100.00
14612;BME280;7392;52.078;11.650;2022-09-20T05:25:49;101180.34;;;9.03;100.00
14612;BME280;7392;52.078;11.650;2022-09-20T05:28:25;101182.13;;;9.04;100.00
14612;BME280;7392;52.078;11.650;2022-09-20T05:31:02;101179.47;;;9.05;100.00
14612;BME280;7392;52.078;11.650;2022-09-20T05:33:39;101188.34;;;9.06;100.00
14612;BME280;7392;52.078;11.650;2022-09-20T05:36:16;101191.88;;;9.06;100.00
14612;BME280;7392;52.078;11.650;2022-09-20T05:38:49;101193.69;;;9.09;100.00
14612;BME280;7392;52.078;11.650;2022-09-20T05:41:26;101195.44;;;9.10;100.00
14612;BME280;7392;52.078;11.650;2022-09-20T05:44:03;101197.22;;;9.11;100.00
14612;BME280;7392;52.078;11.650;2022-09-20T05:46:42;101199.91;;;9.12;100.00
14612;BME280;7392;52.078;11.650;2022-09-20T05:49:18;101206.97;;;9.15;100.00
14612;BME280;7392;52.078;11.650;2022-09-20T05:52:01;101204.34;;;9.16;100.00
14612;BME280;7392;52.078;11.650;2022-09-20T05:54:52;101191.97;;;9.17;100.00
14612;BME280;7392;52.078;11.650;2022-09-20T05:57:34;101207.91;;;9.18;100.00
14612;BME280;7392;52.078;11.650;2022-09-20T06:00:09;101199.94;;;9.18;100.00
14612;BME280;7392;52.078;11.650;2022-09-20T06:02:45;101199.97;;;9.20;100.00
14612;BME280;7392;52.078;11.650;2022-09-20T06:05:28;101200.00;;;9.23;100.00
14612;BME280;7392;52.078;11.650;2022-09-20T06:08:11;101199.16;;;9.26;100.00
14612;BME280;7392;52.078;11.650;2022-09-20T06:10:51;101211.53;;;9.28;100.00
14612;BME280;7392;52.078;11.650;2022-09-20T06:13:33;101200.09;;;9.31;100.00
14612;BME280;7392;52.078;11.650;2022-09-20T06:16:06;101215.16;;;9.35;100.00
14612;BME280;7392;52.078;11.650;2022-09-20T06:18:42;101209.88;;;9.38;100.00
14612;BME280;7392;52.078;11.650;2022-09-20T06:21:22;101211.66;;;9.41;100.00
14612;BME280;7392;52.078;11.650;2022-09-20T06:23:57;101222.31;;;9.44;100.00
14612;BME280;7392;52.078;11.650;2022-09-20T06:26:29;101222.34;;;9.47;100.00
14612;BME280;7392;52.078;11.650;2022-09-20T06:29:03;101217.06;;;9.50;100.00
14612;BME280;7392;52.078;11.650;2022-09-20T06:31:31;101226.78;;;9.51;100.00
14612;BME280;7392;52.078;11.650;2022-09-20T06:34:02;101232.13;;;9.54;100.00
14612;BME280;7392;52.078;11.650;2022-09-20T06:36:33;101224.19;;;9.55;100.00
14612;BME280;7392;52.078;11.650;2022-09-20T06:39:36;101230.38;;;9.56;100.00
14612;BME280;7392;52.078;11.650;2022-09-20T06:42:25;101234.81;;;9.57;100.00
14612;BME280;7392;52.078;11.650;2022-09-20T06:44:55;101239.22;;;9.58;100.00
14612;BME280;7392;52.078;11.650;2022-09-20T06:47:23;101245.47;;;9.60;100.00
14612;BME280;7392;52.078;11.650;2022-09-20T06:49:52;101243.69;;;9.61;100.00
14612;BME280;7392;52.078;11.650;2022-09-20T06:52:22;101241.06;;;9.62;100.00
14612;BME280;7392;52.078;11.650;2022-09-20T06:54:52;101251.66;;;9.62;100.00
14612;BME280;7392;52.078;11.650;2022-09-20T06:57:23;101254.34;;;9.65;100.00
14612;BME280;7392;52.078;11.650;2022-09-20T06:59:54;101249.94;;;9.67;100.00
14612;BME280;7392;52.078;11.650;2022-09-20T07:02:21;101253.47;;;9.68;100.00
14612;BME280;7392;52.078;11.650;2022-09-20T07:04:49;101252.63;;;9.70;100.00
14612;BME280;7392;52.078;11.650;2022-09-20T07:07:19;101250.00;;;9.77;100.00
14612;BME280;7392;52.078;11.650;2022-09-20T07:09:48;101253.56;;;9.79;100.00
14612;BME280;7392;52.078;11.650;2022-09-20T07:12:16;101261.56;;;9.82;100.00
14612;BME280;7392;52.078;11.650;2022-09-20T07:14:44;101266.88;;;9.83;100.00
14612;BME280;7392;52.078;11.650;2022-09-20T07:17:12;101259.84;;;9.87;100.00
14612;BME280;7392;52.078;11.650;2022-09-20T07:19:40;101268.72;;;9.90;100.00
14612;BME280;7392;52.078;11.650;2022-09-20T07:22:07;101268.78;;;9.97;100.00
14612;BME280;7392;52.078;11.650;2022-09-20T07:24:35;101266.19;;;10.03;100.00
14612;BME280;7392;52.078;11.650;2022-09-20T07:27:04;101266.19;;;10.06;100.00
14612;BME280;7392;52.078;11.650;2022-09-20T07:29:32;101276.88;;;10.12;100.00
14612;BME280;7392;52.078;11.650;2022-09-20T07:32:01;101276.00;;;10.15;100.00
14612;BME280;7392;52.078;11.650;2022-09-20T07:34:28;101271.63;;;10.20;100.00
14612;BME280;7392;52.078;11.650;2022-09-20T07:36:57;101276.09;;;10.25;100.00
14612;BME280;7392;52.078;11.650;2022-09-20T07:39:25;101284.09;;;10.30;100.00
14612;BME280;7392;52.078;11.650;2022-09-20T07:41:53;101277.09;;;10.38;100.00
14612;BME280;7392;52.078;11.650;2022-09-20T07:44:22;101284.25;;;10.45;100.00
14612;BME280;7392;52.078;11.650;2022-09-20T07:46:55;101287.81;;;10.49;100.00
14612;BME280;7392;52.078;11.650;2022-09-20T07:49:25;101287.81;;;10.55;100.00
14612;BME280;7392;52.078;11.650;2022-09-20T07:51:54;101287.00;;;10.62;100.00
14612;BME280;7392;52.078;11.650;2022-09-20T07:54:21;101284.41;;;10.73;100.00
14612;BME280;7392;52.078;11.650;2022-09-20T07:56:49;101287.09;;;10.78;100.00
14612;BME280;7392;52.078;11.650;2022-09-20T07:59:17;101296.84;;;10.82;100.00
14612;BME280;7392;52.078;11.650;2022-09-20T08:01:46;101299.53;;;10.85;100.00
14612;BME280;7392;52.078;11.650;2022-09-20T08:04:14;101305.75;;;10.87;100.00
14612;BME280;7392;52.078;11.650;2022-09-20T08:06:43;101304.00;;;10.92;100.00
14612;BME280;7392;52.078;11.650;2022-09-20T08:09:12;101298.69;;;10.95;100.00
14612;BME280;7392;52.078;11.650;2022-09-20T08:11:41;101297.81;;;10.98;100.00
14612;BME280;7392;52.078;11.650;2022-09-20T08:14:12;101302.25;;;11.00;100.00
14612;BME280;7392;52.078;11.650;2022-09-20T08:16:43;101302.28;;;11.02;100.00
14612;BME280;7392;52.078;11.650;2022-09-20T08:19:15;101302.28;;;11.08;100.00
14612;BME280;7392;52.078;11.650;2022-09-20T08:21:44;101311.19;;;11.15;100.00
14612;BME280;7392;52.078;11.650;2022-09-20T08:24:12;101317.38;;;11.17;100.00
14612;BME280;7392;52.078;11.650;2022-09-20T08:26:42;101314.78;;;11.25;100.00
14612;BME280;7392;52.078;11.650;2022-09-20T08:29:10;101321.00;;;11.28;100.00
14612;BME280;7392;52.078;11.650;2022-09-20T08:31:38;101331.63;;;11.30;100.00
14612;BME280;7392;52.078;11.650;2022-09-20T08:34:10;101329.88;;;11.32;100.00
14612;BME280;7392;52.078;11.650;2022-09-20T08:36:41;101323.66;;;11.37;100.00
14612;BME280;7392;52.078;11.650;2022-09-20T08:39:11;101321.06;;;11.45;100.00
14612;BME280;7392;52.078;11.650;2022-09-20T08:42:07;101324.66;;;11.56;100.00
14612;BME280;7392;52.078;11.650;2022-09-20T08:44:44;101328.19;;;11.63;100.00
14612;BME280;7392;52.078;11.650;2022-09-20T08:47:25;101335.28;;;11.63;100.00
14612;BME280;7392;52.078;11.650;2022-09-20T08:49:54;101330.91;;;11.74;100.00
14612;BME280;7392;52.078;11.650;2022-09-20T08:52:27;101336.22;;;11.85;100.00
14612;BME280;7392;52.078;11.650;2022-09-20T08:55:03;101332.69;;;11.83;100.00
14612;BME280;7392;52.078;11.650;2022-09-20T08:57:33;101338.91;;;11.89;100.00
14612;BME280;7392;52.078;11.650;2022-09-20T09:00:03;101343.34;;;11.89;100.00
14612;BME280;7392;52.078;11.650;2022-09-20T09:02:31;101345.13;;;11.90;100.00
14612;BME280;7392;52.078;11.650;2022-09-20T09:05:01;101347.81;;;11.94;100.00
14612;BME280;7392;52.078;11.650;2022-09-20T09:07:30;101342.50;;;12.04;100.00
14612;BME280;7392;52.078;11.650;2022-09-20T09:09:58;101346.06;;;12.12;100.00
14612;BME280;7392;52.078;11.650;2022-09-20T09:12:29;101339.84;;;12.18;100.00
14612;BME280;7392;52.078;11.650;2022-09-20T09:15:04;101338.97;;;12.23;100.00
14612;BME280;7392;52.078;11.650;2022-09-20T09:17:45;101343.41;;;12.29;100.00
14612;BME280;7392;52.078;11.650;2022-09-20T09:20:15;101352.28;;;12.32;100.00
14612;BME280;7392;52.078;11.650;2022-09-20T09:22:58;101351.41;;;12.46;100.00
14612;BME280;7392;52.078;11.650;2022-09-20T09:25:28;101351.38;;;12.53;99.31
14612;BME280;7392;52.078;11.650;2022-09-20T09:28:01;101353.19;;;12.58;98.08
14612;BME280;7392;52.078;11.650;2022-09-20T09:30:32;101346.06;;;12.67;98.34
14612;BME280;7392;52.078;11.650;2022-09-20T09:33:21;101353.13;;;12.87;97.98
14612;BME280;7392;52.078;11.650;2022-09-20T09:35:52;101360.22;;;12.99;98.15
14612;BME280;7392;52.078;11.650;2022-09-20T09:38:23;101367.34;;;12.97;95.17
14612;BME280;7392;52.078;11.650;2022-09-20T09:40:53;101362.88;;;12.89;94.19
14612;BME280;7392;52.078;11.650;2022-09-20T09:43:23;101372.66;;;12.92;94.97
14612;BME280;7392;52.078;11.650;2022-09-20T09:45:53;101374.47;;;12.93;94.27
14612;BME280;7392;52.078;11.650;2022-09-20T09:48:24;101364.66;;;12.92;93.83
14612;BME280;7392;52.078;11.650;2022-09-20T09:51:07;101360.22;;;12.94;94.66
14612;BME280;7392;52.078;11.650;2022-09-20T09:53:37;101363.75;;;13.04;95.79
14612;BME280;7392;52.078;11.650;2022-09-20T09:56:22;101372.59;;;13.17;95.12
14612;BME280;7392;52.078;11.650;2022-09-20T09:59:05;101371.72;;;13.21;94.13
14612;BME280;7392;52.078;11.650;2022-09-20T10:01:39;101362.78;;;13.29;93.14
14612;BME280;7392;52.078;11.650;2022-09-20T10:04:16;101365.44;;;13.37;92.47
14612;BME280;7392;52.078;11.650;2022-09-20T10:06:53;101369.88;;;13.44;92.05
14612;BME280;7392;52.078;11.650;2022-09-20T10:09:41;101375.09;;;13.64;92.58
14612;BME280;7392;52.078;11.650;2022-09-20T10:12:22;101367.03;;;13.78;92.03
14612;BME280;7392;52.078;11.650;2022-09-20T10:15:01;101359.94;;;13.79;91.78
14612;BME280;7392;52.078;11.650;2022-09-20T10:17:48;101367.00;;;13.81;90.08
14612;BME280;7392;52.078;11.650;2022-09-20T10:20:33;101367.00;;;13.88;90.45
14612;BME280;7392;52.078;11.650;2022-09-20T10:23:13;101372.31;;;13.91;90.07
14612;BME280;7392;52.078;11.650;2022-09-20T10:26:11;101376.72;;;13.96;90.36
14612;BME280;7392;52.078;11.650;2022-09-20T10:28:56;101375.78;;;14.00;89.82
14612;BME280;7392;52.078;11.650;2022-09-20T10:31:41;101373.13;;;14.03;88.52
14612;BME280;7392;52.078;11.650;2022-09-20T10:34:37;101374.03;;;14.02;87.78
14612;BME280;7392;52.078;11.650;2022-09-20T10:37:13;101370.44;;;14.03;87.96
14612;BME280;7392;52.078;11.650;2022-09-20T10:39:47;101370.44;;;14.02;87.04
14612;BME280;7392;52.078;11.650;2022-09-20T10:42:31;101364.25;;;13.98;87.30
14612;BME280;7392;52.078;11.650;2022-09-20T10:45:25;101375.84;;;13.97;87.03
14612;BME280;7392;52.078;11.650;2022-09-20T10:48:21;101370.50;;;13.97;86.55
14612;BME280;7392;52.078;11.650;2022-09-20T10:50:55;101371.34;;;14.04;87.16
14612;BME280;7392;52.078;11.650;2022-09-20T10:53:28;101372.22;;;14.09;86.57
14612;BME280;7392;52.078;11.650;2022-09-20T10:56:12;101370.38;;;14.14;87.27
14612;BME280;7392;52.078;11.650;2022-09-20T10:59:12;101381.97;;;14.13;86.69
14612;BME280;7392;52.078;11.650;2022-09-20T11:01:53;101380.03;;;14.32;86.43
14612;BME280;7392;52.078;11.650;2022-09-20T11:04:48;101372.72;;;14.54;85.65
14612;BME280;7392;52.078;11.650;2022-09-20T11:07:27;101383.38;;;14.64;85.26
14612;BME280;7392;52.078;11.650;2022-09-20T11:10:04;101373.47;;;14.75;85.11
14612;BME280;7392;52.078;11.650;2022-09-20T11:12:36;101381.34;;;14.90;84.39
14612;BME280;7392;52.078;11.650;2022-09-20T11:15:15;101385.72;;;14.98;84.25
14612;BME280;7392;52.078;11.650;2022-09-20T11:17:58;101383.03;;;14.99;82.45
14612;BME280;7392;52.078;11.650;2022-09-20T11:20:31;101381.22;;;15.00;82.88
14612;BME280;7392;52.078;11.650;2022-09-20T11:23:05;101382.16;;;14.97;82.45
14612;BME280;7392;52.078;11.650;2022-09-20T11:25:41;101387.41;;;15.08;82.10
14612;BME280;7392;52.078;11.650;2022-09-20T11:28:14;101381.59;;;15.48;82.33
14612;BME280;7392;52.078;11.650;2022-09-20T11:30:53;101376.75;;;15.79;82.06
14612;BME280;7392;52.078;11.650;2022-09-20T11:33:27;101383.72;;;15.93;81.31
14612;BME280;7392;52.078;11.650;2022-09-20T11:35:58;101381.69;;;16.07;80.76
14612;BME280;7392;52.078;11.650;2022-09-20T11:38:33;101384.31;;;16.12;78.72
14612;BME280;7392;52.078;11.650;2022-09-20T11:41:07;101377.22;;;16.09;78.47
14612;BME280;7392;52.078;11.650;2022-09-20T11:43:38;101383.50;;;16.06;77.71
14612;BME280;7392;52.078;11.650;2022-09-20T11:46:12;101373.25;;;16.35;78.60
14612;BME280;7392;52.078;11.650;2022-09-20T11:48:44;101373.38;;;16.78;79.17
14612;BME280;7392;52.078;11.650;2022-09-20T11:54:29;101384.78;;;17.39;75.43
14612;BME280;7392;52.078;11.650;2022-09-20T11:57:02;101377.28;;;17.55;74.51
14612;BME280;7392;52.078;11.650;2022-09-20T11:59:35;101381.81;;;17.53;71.75
14612;BME280;7392;52.078;11.650;2022-09-20T12:02:15;101377.19;;;17.60;69.63
14612;BME280;7392;52.078;11.650;2022-09-20T12:04:45;101374.69;;;17.93;71.22
14612;BME280;7392;52.078;11.650;2022-09-20T12:07:22;101371.47;;;18.16;70.16
14612;BME280;7392;52.078;11.650;2022-09-20T12:09:53;101373.97;;;18.24;68.68
14612;BME280;7392;52.078;11.650;2022-09-20T12:12:30;101373.25;;;18.53;67.71
14612;BME280;7392;52.078;11.650;2022-09-20T12:15:02;101375.31;;;18.78;66.64
14612;BME280;7392;52.078;11.650;2022-09-20T12:21:13;101367.44;;;19.37;64.36
14612;BME280;7392;52.078;11.650;2022-09-20T12:24:18;101364.78;;;19.66;62.87
14612;BME280;7392;52.078;11.650;2022-09-20T12:26:48;101366.13;;;19.82;63.22
14612;BME280;7392;52.078;11.650;2022-09-20T12:38:27;101366.44;;;20.83;59.54
14612;BME280;7392;52.078;11.650;2022-09-20T12:40:58;101365.00;;;20.98;57.75
14612;BME280;7392;52.078;11.650;2022-09-20T12:43:28;101360.66;;;20.93;53.84
14612;BME280;7392;52.078;11.650;2022-09-20T12:45:57;101366.09;;;20.92;53.41
14612;BME280;7392;52.078;11.650;2022-09-20T12:48:36;101370.25;;;20.77;52.84
14612;BME280;7392;52.078;11.650;2022-09-20T12:51:16;101370.28;;;20.76;53.20
14612;BME280;7392;52.078;11.650;2022-09-20T12:54:06;101372.25;;;20.96;54.00
14612;BME280;7392;52.078;11.650;2022-09-20T12:56:38;101378.09;;;21.34;55.36
14612;BME280;7392;52.078;11.650;2022-09-20T12:59:19;101371.09;;;21.53;53.41
14612;BME280;7392;52.078;11.650;2022-09-20T13:01:48;101369.41;;;21.51;52.11
14612;BME280;7392;52.078;11.650;2022-09-20T13:07:37;101368.38;;;21.53;50.47
14612;BME280;7392;52.078;11.650;2022-09-20T13:10:25;101375.91;;;21.69;49.92
14612;BME280;7392;52.078;11.650;2022-09-20T13:13:01;101378.13;;;21.57;49.78
14612;BME280;7392;52.078;11.650;2022-09-20T13:15:29;101373.44;;;21.62;50.07
14612;BME280;7392;52.078;11.650;2022-09-20T13:18:00;101364.97;;;21.72;50.35
14612;BME280;7392;52.078;11.650;2022-09-20T13:20:30;101370.72;;;21.86;50.77
14612;BME280;7392;52.078;11.650;2022-09-20T13:23:02;101367.03;;;22.11;50.95
14612;BME280;7392;52.078;11.650;2022-09-20T13:25:32;101367.69;;;22.17;49.98
14612;BME280;7392;52.078;11.650;2022-09-20T13:28:06;101375.66;;;21.98;46.87
14612;BME280;7392;52.078;11.650;2022-09-20T13:30:34;101384.28;;;21.84;48.07
14612;BME280;7392;52.078;11.650;2022-09-20T13:33:18;101377.97;;;22.08;48.85
14612;BME280;7392;52.078;11.650;2022-09-20T13:35:49;101380.81;;;22.27;48.47
14612;BME280;7392;52.078;11.650;2022-09-20T13:38:18;101373.34;;;22.33;46.89
14612;BME280;7392;52.078;11.650;2022-09-20T13:40:51;101378.00;;;22.30;47.01
14612;BME280;7392;52.078;11.650;2022-09-20T13:43:28;101373.22;;;22.36;47.42
14612;BME280;7392;52.078;11.650;2022-09-20T13:46:06;101370.00;;;22.49;48.03
14612;BME280;7392;52.078;11.650;2022-09-20T13:48:34;101357.50;;;22.46;46.41
14612;BME280;7392;52.078;11.650;2022-09-20T13:51:02;101371.78;;;22.50;46.27
14612;BME280;7392;52.078;11.650;2022-09-20T13:53:30;101365.22;;;22.55;46.48
14612;BME280;7392;52.078;11.650;2022-09-20T13:56:15;101370.97;;;22.68;46.37
14612;BME280;7392;52.078;11.650;2022-09-20T13:58:44;101367.19;;;22.72;46.54
14612;BME280;7392;52.078;11.650;2022-09-20T14:01:22;101363.81;;;22.67;46.15
14612;BME280;7392;52.078;11.650;2022-09-20T14:03:52;101363.63;;;22.72;44.68
14612;BME280;7392;52.078;11.650;2022-09-20T14:06:23;101368.47;;;22.64;44.91
14612;BME280;7392;52.078;11.650;2022-09-20T14:08:56;101364.81;;;22.65;45.57
14612;BME280;7392;52.078;11.650;2022-09-20T14:11:28;101363.28;;;22.79;46.26
14612;BME280;7392;52.078;11.650;2022-09-20T14:13:57;101365.19;;;22.98;46.08